Aviation weather information 2024-04-18 16:33 UTC

TAF(FCEO32)
FCEO32 EETN 181200 AAA
TAF AMD EEKA 181600Z 1813/1819 CNL=
FCEO32 EETN 181400
TAF EEKE 181400Z 1815/1821 04012KT 9999 SCT030=

TAF(FTEO31)
FTEO31 EETN 181100
TAF EETN 181130Z 1812/1912 06012KT 9999 SCT015 BKN030 PROB40
     TEMPO 1812/1814 2000 SHSN BKN008 FEW015CB=

Weather observation (METAR/SPECI)
METAR EETN 181620Z 07007KT 030V100 9999 BKN032 01/M05 Q1013 NOSIG=
METAR EEEI 181550Z AUTO 05010KT 9999 SCT022/// OVC028/// 01/M04
Q1013=
METAR EETU 181620Z AUTO 04008KT 010V070 9999 OVC031/// 02/M03 Q1011=
METAR EEPU 181620Z AUTO 05010KT 9999 BKN035/// 04/M02 Q1011=
METAR EEKE 181620Z 03012KT CAVOK 04/M02 Q1012=
METAR EEKA 181620Z NIL=